Time;durP1;ratioP1;P1;durP2;ratioP2;P2;SDS_P1;SDS_P2;PMS_P1;PMS_P2;Temp;Humidity;BMP_temperature;BMP_pressure;BME280_temperature;BME280_humidity;BME280_pressure;Samples;Min_cycle;Max_cycle;Signal;HPM_P1;HPM_P2
2023/03/02 00:01:25;;;;;;;7.00;5.80;;;;;;;;;;5058811;28;20210;-76
2023/03/02 00:03:52;;;;;;;7.10;5.73;;;;;;;;;;5067216;28;20197;-76
2023/03/02 00:06:19;;;;;;;6.87;5.73;;;;;;;;;;5063355;28;20203;-75
2023/03/02 00:08:47;;;;;;;9.23;5.80;;;;;;;;;;5061487;28;20214;-75
2023/03/02 00:11:15;;;;;;;7.33;6.03;;;;;;;;;;5058268;28;20217;-75
2023/03/02 00:13:42;;;;;;;7.90;5.70;;;;;;;;;;5064984;28;20219;-75
2023/03/02 00:16:11;;;;;;;8.40;6.63;;;;;;;;;;5057242;28;20203;-75
2023/03/02 00:18:38;;;;;;;8.10;5.70;;;;;;;;;;5054669;28;20204;-75
2023/03/02 00:21:09;;;;;;;7.43;5.80;;;;;;;;;;5056103;28;20207;-75
2023/03/02 00:23:36;;;;;;;6.90;5.40;;;;;;;;;;5058360;28;20210;-76
2023/03/02 00:26:03;;;;;;;6.83;5.93;;;;;;;;;;5064626;28;20194;-75
2023/03/02 00:28:30;;;;;;;7.83;5.87;;;;;;;;;;5059482;28;20213;-75
2023/03/02 00:30:57;;;;;;;6.60;5.80;;;;;;;;;;5058681;28;20388;-75
2023/03/02 00:33:26;;;;;;;7.43;6.30;;;;;;;;;;5052662;28;20230;-75
2023/03/02 00:35:53;;;;;;;8.00;6.20;;;;;;;;;;5061352;28;20202;-75
2023/03/02 00:38:20;;;;;;;8.83;6.23;;;;;;;;;;5059642;28;20209;-75
2023/03/02 00:40:48;;;;;;;7.70;6.10;;;;;;;;;;5062058;28;20202;-75
2023/03/02 00:43:15;;;;;;;8.93;6.07;;;;;;;;;;5064570;28;20240;-75
2023/03/02 00:45:43;;;;;;;7.87;6.33;;;;;;;;;;5062982;28;20209;-75
2023/03/02 00:48:10;;;;;;;8.53;6.50;;;;;;;;;;5059999;28;20209;-76
2023/03/02 00:50:39;;;;;;;6.93;5.90;;;;;;;;;;5060139;28;20207;-76
2023/03/02 00:53:07;;;;;;;7.77;6.20;;;;;;;;;;5062725;28;20244;-75
2023/03/02 00:55:34;;;;;;;7.60;5.90;;;;;;;;;;5064540;28;20213;-75
2023/03/02 00:58:01;;;;;;;7.73;6.33;;;;;;;;;;5072044;28;20210;-75
2023/03/02 01:00:28;;;;;;;10.40;6.50;;;;;;;;;;5067722;28;20203;-76
2023/03/02 01:02:55;;;;;;;8.13;6.30;;;;;;;;;;5062484;28;20266;-76
2023/03/02 01:05:22;;;;;;;9.73;6.50;;;;;;;;;;5059525;28;20195;-76
2023/03/02 01:07:51;;;;;;;7.93;6.60;;;;;;;;;;5063484;28;20293;-76
2023/03/02 01:10:18;;;;;;;8.47;6.20;;;;;;;;;;5057728;28;20200;-76
2023/03/02 01:12:45;;;;;;;8.07;6.27;;;;;;;;;;5057614;28;20229;-75
2023/03/02 01:15:13;;;;;;;7.87;6.30;;;;;;;;;;5065656;28;20292;-76
2023/03/02 01:17:42;;;;;;;10.03;6.13;;;;;;;;;;5061288;28;20311;-75
2023/03/02 01:20:11;;;;;;;8.50;6.50;;;;;;;;;;5059336;28;20211;-75
2023/03/02 01:22:38;;;;;;;8.23;6.53;;;;;;;;;;5061925;28;20209;-75
2023/03/02 01:25:07;;;;;;;7.57;6.10;;;;;;;;;;5058114;28;20228;-75
2023/03/02 01:27:34;;;;;;;9.63;6.50;;;;;;;;;;5062377;28;20203;-76
2023/03/02 01:30:02;;;;;;;7.90;6.40;;;;;;;;;;5066806;28;20285;-76
2023/03/02 01:32:29;;;;;;;7.10;6.17;;;;;;;;;;5058299;28;20234;-76
2023/03/02 01:34:56;;;;;;;8.07;6.43;;;;;;;;;;5065862;28;20199;-76
2023/03/02 01:37:23;;;;;;;8.43;6.97;;;;;;;;;;5061927;28;20198;-76
2023/03/02 01:39:50;;;;;;;7.67;6.20;;;;;;;;;;5058062;28;20211;-76
2023/03/02 01:42:19;;;;;;;7.77;6.93;;;;;;;;;;5057295;28;20203;-76
2023/03/02 01:44:47;;;;;;;7.90;6.90;;;;;;;;;;5058487;28;20209;-76
2023/03/02 01:47:16;;;;;;;8.07;6.60;;;;;;;;;;5055912;28;20200;-77
2023/03/02 01:49:47;;;;;;;9.33;6.90;;;;;;;;;;5061527;28;20214;-77
2023/03/02 01:52:14;;;;;;;8.33;6.47;;;;;;;;;;5063413;28;20203;-77
2023/03/02 01:54:42;;;;;;;8.03;6.37;;;;;;;;;;5063894;28;20211;-77
2023/03/02 01:57:10;;;;;;;7.97;6.30;;;;;;;;;;5062502;28;20199;-76
2023/03/02 01:59:41;;;;;;;8.30;6.60;;;;;;;;;;5056143;28;20230;-76
2023/03/02 02:02:09;;;;;;;10.83;6.87;;;;;;;;;;5060837;28;20199;-77
2023/03/02 02:04:37;;;;;;;10.07;6.83;;;;;;;;;;5059804;28;20200;-77
2023/03/02 02:07:05;;;;;;;7.77;6.53;;;;;;;;;;5063167;28;20199;-77
2023/03/02 02:09:34;;;;;;;7.53;6.57;;;;;;;;;;5063069;28;20203;-76
2023/03/02 02:12:01;;;;;;;9.33;6.87;;;;;;;;;;5065421;28;20204;-77
2023/03/02 02:14:28;;;;;;;8.50;6.83;;;;;;;;;;5062587;28;20229;-77
2023/03/02 02:16:57;;;;;;;10.67;6.77;;;;;;;;;;5055136;28;20195;-77
2023/03/02 02:19:30;;;;;;;9.47;6.80;;;;;;;;;;5057567;28;20214;-76
2023/03/02 02:21:57;;;;;;;9.40;7.10;;;;;;;;;;5061219;28;20202;-77
2023/03/02 02:24:28;;;;;;;9.83;7.63;;;;;;;;;;5058565;28;20211;-76
2023/03/02 02:26:57;;;;;;;11.17;7.43;;;;;;;;;;5060124;28;20207;-77
2023/03/02 02:29:25;;;;;;;9.17;6.93;;;;;;;;;;5063624;28;20204;-77
2023/03/02 02:31:55;;;;;;;9.00;6.77;;;;;;;;;;5058970;28;20209;-77
2023/03/02 02:34:24;;;;;;;10.23;7.40;;;;;;;;;;5059967;28;20219;-77
2023/03/02 02:36:53;;;;;;;9.67;7.07;;;;;;;;;;5060102;28;20289;-76
2023/03/02 02:39:22;;;;;;;9.83;7.03;;;;;;;;;;5062473;28;20237;-76
2023/03/02 02:41:51;;;;;;;8.20;6.40;;;;;;;;;;5059687;28;20206;-77
2023/03/02 02:44:20;;;;;;;9.87;7.37;;;;;;;;;;5053672;28;20206;-76
2023/03/02 02:46:47;;;;;;;9.13;7.43;;;;;;;;;;5062608;28;20195;-76
2023/03/02 02:49:21;;;;;;;7.83;6.67;;;;;;;;;;5055161;28;20199;-77
2023/03/02 02:51:48;;;;;;;9.83;7.13;;;;;;;;;;5054773;28;20207;-77
2023/03/02 02:54:18;;;;;;;9.47;7.37;;;;;;;;;;5063329;28;20218;-76
2023/03/02 02:56:46;;;;;;;10.20;7.40;;;;;;;;;;5060096;28;20340;-77
2023/03/02 02:59:16;;;;;;;9.73;7.50;;;;;;;;;;5060389;28;20203;-77
2023/03/02 03:01:45;;;;;;;9.67;7.67;;;;;;;;;;5064045;28;20200;-76
2023/03/02 03:04:14;;;;;;;10.53;8.30;;;;;;;;;;5064014;28;20201;-77
2023/03/02 03:06:50;;;;;;;12.13;7.50;;;;;;;;;;5058038;28;20213;-77
2023/03/02 03:09:17;;;;;;;9.00;7.30;;;;;;;;;;5059151;28;20281;-76
2023/03/02 03:11:47;;;;;;;10.73;7.77;;;;;;;;;;5059623;28;20203;-76
2023/03/02 03:14:15;;;;;;;11.33;7.60;;;;;;;;;;5063258;28;20215;-76
2023/03/02 03:16:43;;;;;;;9.87;7.60;;;;;;;;;;5059897;28;20211;-76
2023/03/02 03:19:13;;;;;;;10.00;8.00;;;;;;;;;;5056167;28;20291;-77
2023/03/02 03:21:40;;;;;;;9.37;7.37;;;;;;;;;;5057987;28;20199;-77
2023/03/02 03:24:08;;;;;;;10.87;7.43;;;;;;;;;;5057070;28;20203;-76
2023/03/02 03:26:35;;;;;;;10.37;7.47;;;;;;;;;;5058606;28;20284;-76
2023/03/02 03:29:03;;;;;;;10.60;7.50;;;;;;;;;;5058115;28;20226;-77
2023/03/02 03:31:30;;;;;;;9.10;7.20;;;;;;;;;;5054608;28;20210;-77
2023/03/02 03:33:59;;;;;;;9.13;7.47;;;;;;;;;;5056549;28;20221;-76
2023/03/02 03:36:28;;;;;;;8.67;7.30;;;;;;;;;;5056557;28;20336;-77
2023/03/02 03:38:55;;;;;;;13.77;7.60;;;;;;;;;;5054273;28;20206;-77
2023/03/02 03:41:23;;;;;;;9.63;7.40;;;;;;;;;;5063714;28;20194;-76
2023/03/02 03:43:50;;;;;;;8.90;7.43;;;;;;;;;;5058184;28;20191;-76
2023/03/02 03:46:17;;;;;;;10.03;7.73;;;;;;;;;;5063297;28;20202;-76
2023/03/02 03:48:44;;;;;;;11.07;8.17;;;;;;;;;;5060031;28;20203;-76
2023/03/02 03:51:12;;;;;;;9.50;7.57;;;;;;;;;;5062362;28;20207;-77
2023/03/02 03:53:40;;;;;;;11.87;7.47;;;;;;;;;;5054367;28;20215;-77
2023/03/02 03:56:08;;;;;;;10.40;8.03;;;;;;;;;;5058796;28;20203;-77
2023/03/02 03:58:35;;;;;;;10.27;7.80;;;;;;;;;;5060801;28;20225;-76
2023/03/02 04:01:02;;;;;;;9.40;7.77;;;;;;;;;;5051085;28;20199;-76
2023/03/02 04:03:29;;;;;;;9.33;7.43;;;;;;;;;;5059980;28;20202;-77
2023/03/02 04:05:56;;;;;;;8.87;7.47;;;;;;;;;;5053578;28;20208;-76
2023/03/02 04:08:24;;;;;;;10.70;7.97;;;;;;;;;;5054225;28;20210;-76
2023/03/02 04:10:52;;;;;;;9.50;7.77;;;;;;;;;;5057319;28;20206;-76
2023/03/02 04:13:19;;;;;;;11.67;8.20;;;;;;;;;;5060997;28;20238;-76
2023/03/02 04:15:46;;;;;;;10.80;8.20;;;;;;;;;;5062204;28;20203;-77
2023/03/02 04:18:13;;;;;;;11.80;8.30;;;;;;;;;;5053734;28;20208;-77
2023/03/02 04:20:41;;;;;;;12.43;8.50;;;;;;;;;;5058327;28;20229;-76
2023/03/02 04:23:08;;;;;;;10.43;7.40;;;;;;;;;;5061819;28;20210;-77
2023/03/02 04:25:35;;;;;;;10.03;7.87;;;;;;;;;;5058350;28;20301;-77
2023/03/02 04:28:03;;;;;;;10.83;8.03;;;;;;;;;;5057300;28;20301;-76
2023/03/02 04:30:31;;;;;;;12.17;8.40;;;;;;;;;;5058799;28;20218;-77
2023/03/02 04:32:59;;;;;;;10.77;8.47;;;;;;;;;;5052952;28;20242;-76
2023/03/02 04:35:26;;;;;;;11.03;8.53;;;;;;;;;;5054335;28;20227;-76
2023/03/02 04:37:53;;;;;;;10.60;7.97;;;;;;;;;;5054513;28;20290;-76
2023/03/02 04:40:20;;;;;;;10.60;8.20;;;;;;;;;;5059541;28;20214;-77
2023/03/02 04:42:48;;;;;;;10.47;7.77;;;;;;;;;;5054871;28;20207;-77
2023/03/02 04:45:16;;;;;;;10.37;8.03;;;;;;;;;;5055100;28;20201;-76
2023/03/02 04:47:43;;;;;;;9.43;7.83;;;;;;;;;;5054633;28;20206;-77
2023/03/02 04:50:12;;;;;;;9.20;7.60;;;;;;;;;;5058543;28;20203;-77
2023/03/02 04:52:40;;;;;;;9.30;7.67;;;;;;;;;;5063083;28;20232;-77
2023/03/02 04:55:07;;;;;;;10.20;7.87;;;;;;;;;;5064088;28;20218;-77
2023/03/02 04:57:34;;;;;;;11.17;8.17;;;;;;;;;;5058387;28;20203;-77
2023/03/02 05:00:03;;;;;;;10.03;7.87;;;;;;;;;;5064366;28;20209;-77
2023/03/02 05:02:32;;;;;;;11.37;7.97;;;;;;;;;;5064189;28;20218;-76
2023/03/02 05:04:59;;;;;;;11.47;8.93;;;;;;;;;;5060317;28;20191;-76
2023/03/02 05:07:26;;;;;;;10.67;7.90;;;;;;;;;;5056576;28;20195;-76
2023/03/02 05:09:53;;;;;;;12.30;7.97;;;;;;;;;;5062602;28;20203;-76
2023/03/02 05:12:20;;;;;;;12.20;7.50;;;;;;;;;;5055000;28;20202;-76
2023/03/02 05:14:47;;;;;;;10.13;7.57;;;;;;;;;;5055867;28;20237;-76
2023/03/02 05:17:15;;;;;;;10.13;7.60;;;;;;;;;;5060452;28;20286;-76
2023/03/02 05:19:43;;;;;;;10.37;7.87;;;;;;;;;;5051959;28;20298;-77
2023/03/02 05:22:10;;;;;;;10.50;8.23;;;;;;;;;;5058948;28;20206;-76
2023/03/02 05:24:37;;;;;;;13.27;8.23;;;;;;;;;;5061062;28;20215;-77
2023/03/02 05:27:04;;;;;;;9.77;7.90;;;;;;;;;;5062848;28;20199;-77
2023/03/02 05:29:32;;;;;;;10.27;7.90;;;;;;;;;;5058797;28;20199;-76
2023/03/02 05:31:59;;;;;;;9.37;7.90;;;;;;;;;;5058695;28;20210;-76
2023/03/02 05:34:26;;;;;;;12.10;7.67;;;;;;;;;;5064413;28;20221;-77
2023/03/02 05:36:56;;;;;;;11.90;8.77;;;;;;;;;;5063955;28;20302;-76
2023/03/02 05:39:24;;;;;;;9.33;7.63;;;;;;;;;;5063080;28;20206;-77
2023/03/02 05:41:51;;;;;;;9.83;8.00;;;;;;;;;;5061845;28;20203;-76
2023/03/02 05:44:18;;;;;;;10.93;7.77;;;;;;;;;;5058274;28;20195;-76
2023/03/02 05:46:45;;;;;;;9.03;7.50;;;;;;;;;;5058264;28;20214;-76
2023/03/02 05:49:12;;;;;;;11.10;7.90;;;;;;;;;;5062406;28;20199;-76
2023/03/02 05:51:39;;;;;;;9.20;7.57;;;;;;;;;;5061602;28;20214;-76
2023/03/02 05:54:08;;;;;;;10.80;7.77;;;;;;;;;;5062309;28;20227;-76
2023/03/02 05:56:35;;;;;;;9.63;8.07;;;;;;;;;;5076140;28;20203;-76
2023/03/02 05:59:02;;;;;;;10.37;7.77;;;;;;;;;;5069700;28;20290;-76
2023/03/02 06:01:29;;;;;;;10.57;7.80;;;;;;;;;;5062868;28;20202;-76
2023/03/02 06:03:56;;;;;;;9.50;7.93;;;;;;;;;;5060602;28;20233;-77
2023/03/02 06:06:23;;;;;;;11.67;7.77;;;;;;;;;;5064065;28;20199;-77
2023/03/02 06:08:50;;;;;;;10.27;7.93;;;;;;;;;;5066797;28;20204;-77
2023/03/02 06:11:19;;;;;;;9.60;7.93;;;;;;;;;;5069352;28;20198;-77
2023/03/02 06:13:46;;;;;;;10.40;7.57;;;;;;;;;;5056816;28;20207;-77
2023/03/02 06:16:13;;;;;;;11.70;7.80;;;;;;;;;;5060078;28;20209;-77
2023/03/02 06:18:40;;;;;;;10.20;7.57;;;;;;;;;;5053945;28;20205;-77
2023/03/02 06:21:07;;;;;;;11.17;8.23;;;;;;;;;;5059040;28;20230;-77
2023/03/02 06:23:35;;;;;;;11.77;7.90;;;;;;;;;;5057622;28;20309;-77
2023/03/02 06:26:07;;;;;;;10.60;7.80;;;;;;;;;;5063601;28;20214;-77
2023/03/02 06:28:35;;;;;;;9.90;7.83;;;;;;;;;;5057961;28;20204;-77
2023/03/02 06:31:03;;;;;;;9.93;7.70;;;;;;;;;;5058227;28;20203;-77
2023/03/02 06:33:30;;;;;;;9.57;7.67;;;;;;;;;;5061848;28;20302;-77
2023/03/02 06:35:57;;;;;;;10.80;7.97;;;;;;;;;;5058572;28;20230;-77
2023/03/02 06:38:25;;;;;;;11.37;8.30;;;;;;;;;;5068545;28;20205;-77
2023/03/02 06:40:52;;;;;;;9.80;7.43;;;;;;;;;;5062859;28;20235;-77
2023/03/02 06:43:19;;;;;;;8.87;7.47;;;;;;;;;;5067208;28;20209;-77
2023/03/02 06:45:49;;;;;;;9.63;7.47;;;;;;;;;;5056999;28;20199;-77
2023/03/02 06:48:17;;;;;;;11.23;7.40;;;;;;;;;;5063730;28;20202;-77
2023/03/02 06:50:44;;;;;;;10.00;7.70;;;;;;;;;;5061527;28;20206;-77
2023/03/02 06:53:11;;;;;;;9.70;7.30;;;;;;;;;;5060614;28;20200;-77
2023/03/02 06:55:38;;;;;;;11.17;7.37;;;;;;;;;;5060161;28;20223;-77
2023/03/02 06:58:05;;;;;;;11.60;8.63;;;;;;;;;;5062943;28;20207;-77
2023/03/02 07:00:32;;;;;;;11.57;8.50;;;;;;;;;;5057006;28;20206;-76
2023/03/02 07:03:01;;;;;;;10.80;8.37;;;;;;;;;;5057524;28;20199;-77
2023/03/02 07:05:31;;;;;;;11.10;7.80;;;;;;;;;;5061826;28;20191;-77
2023/03/02 07:07:59;;;;;;;9.47;7.27;;;;;;;;;;5061301;28;20199;-77
2023/03/02 07:10:26;;;;;;;9.50;7.03;;;;;;;;;;5063963;28;20284;-77
2023/03/02 07:12:53;;;;;;;9.90;8.00;;;;;;;;;;5049379;28;20213;-77
2023/03/02 07:15:21;;;;;;;9.30;7.37;;;;;;;;;;5059111;28;20218;-77
2023/03/02 07:17:48;;;;;;;8.87;7.33;;;;;;;;;;5063038;28;20214;-77
2023/03/02 07:20:18;;;;;;;10.57;7.90;;;;;;;;;;5057153;28;20235;-77
2023/03/02 07:22:45;;;;;;;10.73;7.77;;;;;;;;;;5058358;28;20207;-77
2023/03/02 07:25:13;;;;;;;9.57;7.40;;;;;;;;;;5061847;28;20191;-77
2023/03/02 07:27:40;;;;;;;10.93;8.23;;;;;;;;;;5063703;28;20203;-77
2023/03/02 07:30:08;;;;;;;10.47;7.97;;;;;;;;;;5060482;28;20221;-77
2023/03/02 07:32:36;;;;;;;9.40;7.80;;;;;;;;;;5058395;28;20230;-77
2023/03/02 07:35:03;;;;;;;11.00;7.80;;;;;;;;;;5056966;28;20372;-77
2023/03/02 07:37:31;;;;;;;10.03;7.43;;;;;;;;;;5067286;28;20199;-77
2023/03/02 07:39:58;;;;;;;9.40;8.07;;;;;;;;;;5061083;28;20223;-77
2023/03/02 07:42:26;;;;;;;11.43;8.13;;;;;;;;;;5062508;28;20277;-77
2023/03/02 07:44:53;;;;;;;9.47;7.50;;;;;;;;;;5063296;28;20222;-76
2023/03/02 07:47:21;;;;;;;9.73;7.50;;;;;;;;;;5049768;28;20204;-77
2023/03/02 07:49:48;;;;;;;10.40;7.77;;;;;;;;;;5054051;28;20215;-76
2023/03/02 07:52:15;;;;;;;10.17;8.40;;;;;;;;;;5060413;28;20199;-77
2023/03/02 07:54:44;;;;;;;12.00;8.30;;;;;;;;;;5059327;28;20231;-77
2023/03/02 07:57:12;;;;;;;9.40;7.67;;;;;;;;;;5058964;28;20209;-76
2023/03/02 07:59:39;;;;;;;10.80;7.50;;;;;;;;;;5056836;28;20296;-77
2023/03/02 08:02:06;;;;;;;9.47;7.30;;;;;;;;;;5058794;28;20210;-77
2023/03/02 08:04:35;;;;;;;10.47;7.93;;;;;;;;;;5060032;28;20201;-77
2023/03/02 08:07:02;;;;;;;11.50;7.57;;;;;;;;;;5062346;28;20206;-77
2023/03/02 08:09:29;;;;;;;11.37;8.77;;;;;;;;;;5053712;28;20201;-77
2023/03/02 08:11:58;;;;;;;9.67;8.07;;;;;;;;;;5063130;28;20289;-77
2023/03/02 08:14:25;;;;;;;11.63;8.33;;;;;;;;;;5064737;28;20288;-77
2023/03/02 08:16:52;;;;;;;10.37;8.40;;;;;;;;;;5061924;28;20209;-76
2023/03/02 08:19:20;;;;;;;9.80;7.53;;;;;;;;;;5064610;28;20221;-76
2023/03/02 08:21:47;;;;;;;10.73;8.30;;;;;;;;;;5059349;28;20214;-76
2023/03/02 08:24:14;;;;;;;10.90;8.60;;;;;;;;;;5062946;28;20203;-76
2023/03/02 08:26:41;;;;;;;9.73;8.07;;;;;;;;;;5066192;28;20199;-76
2023/03/02 08:29:10;;;;;;;10.63;8.47;;;;;;;;;;5056927;28;20207;-76
2023/03/02 08:31:37;;;;;;;11.40;8.67;;;;;;;;;;5057764;28;20203;-76
2023/03/02 08:34:04;;;;;;;10.83;7.77;;;;;;;;;;5058164;28;20203;-76
2023/03/02 08:36:31;;;;;;;9.60;7.80;;;;;;;;;;5056980;28;20231;-76
2023/03/02 08:38:58;;;;;;;11.87;9.03;;;;;;;;;;5055047;28;20199;-76
2023/03/02 08:41:26;;;;;;;12.00;9.00;;;;;;;;;;5060055;28;20207;-76
2023/03/02 08:43:53;;;;;;;9.50;8.10;;;;;;;;;;5055322;28;20285;-76
2023/03/02 08:46:22;;;;;;;10.30;8.00;;;;;;;;;;5068102;28;20191;-76
2023/03/02 08:48:50;;;;;;;12.13;8.47;;;;;;;;;;5060477;28;20218;-76
2023/03/02 08:51:18;;;;;;;10.23;8.23;;;;;;;;;;5058755;28;20207;-77
2023/03/02 08:53:46;;;;;;;11.13;7.27;;;;;;;;;;5058459;28;20207;-77
2023/03/02 08:56:17;;;;;;;9.93;7.87;;;;;;;;;;5053604;28;20238;-74
2023/03/02 08:58:44;;;;;;;11.37;8.30;;;;;;;;;;5057479;28;20213;-74
2023/03/02 09:01:15;;;;;;;10.60;8.00;;;;;;;;;;5063136;28;20205;-74
2023/03/02 09:03:44;;;;;;;10.00;8.20;;;;;;;;;;5062985;28;20290;-73
2023/03/02 09:06:11;;;;;;;10.47;8.03;;;;;;;;;;5067377;28;20203;-74
2023/03/02 09:08:38;;;;;;;10.73;8.27;;;;;;;;;;5069045;28;20260;-77
2023/03/02 09:11:06;;;;;;;10.17;8.30;;;;;;;;;;5061302;28;20211;-77
2023/03/02 09:13:33;;;;;;;10.80;8.67;;;;;;;;;;5057504;28;20235;-75
2023/03/02 09:16:01;;;;;;;10.97;7.90;;;;;;;;;;5056411;28;20313;-75
2023/03/02 09:18:29;;;;;;;9.63;7.73;;;;;;;;;;5066855;28;20199;-75
2023/03/02 09:20:58;;;;;;;11.17;8.70;;;;;;;;;;5065323;28;20293;-75
2023/03/02 09:23:26;;;;;;;11.23;8.70;;;;;;;;;;5071698;28;20207;-75
2023/03/02 09:25:53;;;;;;;11.43;8.63;;;;;;;;;;5061482;28;20199;-75
2023/03/02 09:28:21;;;;;;;11.00;8.40;;;;;;;;;;5063375;28;20293;-75
2023/03/02 09:30:49;;;;;;;10.13;8.10;;;;;;;;;;5061510;28;20273;-76
2023/03/02 09:33:16;;;;;;;11.40;8.73;;;;;;;;;;5061675;28;20209;-77
2023/03/02 09:35:44;;;;;;;11.60;8.50;;;;;;;;;;5061268;28;20229;-73
2023/03/02 09:38:15;;;;;;;10.93;8.60;;;;;;;;;;5060206;28;20210;-73
2023/03/02 09:40:48;;;;;;;10.73;8.37;;;;;;;;;;5058299;28;20295;-72
2023/03/02 09:43:23;;;;;;;12.20;9.10;;;;;;;;;;5062840;28;20294;-76
2023/03/02 09:45:52;;;;;;;9.97;8.90;;;;;;;;;;5062649;28;20195;-74
2023/03/02 09:48:24;;;;;;;10.97;8.63;;;;;;;;;;5059634;28;20207;-74
2023/03/02 09:50:56;;;;;;;10.90;8.90;;;;;;;;;;5059952;28;20202;-74
2023/03/02 09:53:34;;;;;;;10.20;8.67;;;;;;;;;;5064207;28;20199;-74
2023/03/02 09:56:02;;;;;;;9.67;8.33;;;;;;;;;;5062805;28;20233;-73
2023/03/02 09:58:30;;;;;;;11.47;9.00;;;;;;;;;;5058500;28;20245;-74
2023/03/02 10:00:59;;;;;;;11.23;8.70;;;;;;;;;;5066981;28;20211;-73
2023/03/02 10:03:28;;;;;;;12.10;8.80;;;;;;;;;;5060745;28;20198;-74
2023/03/02 10:05:56;;;;;;;12.30;9.10;;;;;;;;;;5062331;28;20207;-73
2023/03/02 10:08:24;;;;;;;10.13;8.70;;;;;;;;;;5059599;28;20217;-74
2023/03/02 10:10:56;;;;;;;11.97;8.07;;;;;;;;;;5056658;28;20203;-73
2023/03/02 10:13:25;;;;;;;11.03;9.07;;;;;;;;;;5063421;28;20199;-72
2023/03/02 10:16:00;;;;;;;10.53;9.07;;;;;;;;;;5061552;28;20249;-72
2023/03/02 10:18:30;;;;;;;9.87;8.43;;;;;;;;;;5066560;28;20202;-72
2023/03/02 10:21:01;;;;;;;10.00;9.00;;;;;;;;;;5065295;28;20202;-71
2023/03/02 10:23:36;;;;;;;11.07;9.17;;;;;;;;;;5063488;28;20204;-72
2023/03/02 10:26:09;;;;;;;10.50;8.83;;;;;;;;;;5063750;28;20202;-71
2023/03/02 10:28:40;;;;;;;10.47;8.60;;;;;;;;;;5058673;28;20206;-71
2023/03/02 10:31:09;;;;;;;10.03;8.50;;;;;;;;;;5062344;28;20207;-72
2023/03/02 10:33:38;;;;;;;9.77;8.63;;;;;;;;;;5060230;28;20289;-71
2023/03/02 10:36:06;;;;;;;10.63;8.70;;;;;;;;;;5060795;28;20219;-70
2023/03/02 10:38:33;;;;;;;12.73;8.80;;;;;;;;;;5064231;28;20207;-71
2023/03/02 10:41:02;;;;;;;11.00;8.77;;;;;;;;;;5062700;28;20213;-71
2023/03/02 10:43:32;;;;;;;10.33;8.93;;;;;;;;;;5061332;28;20202;-70
2023/03/02 10:46:00;;;;;;;11.53;9.00;;;;;;;;;;5056835;28;20207;-71
2023/03/02 10:48:27;;;;;;;11.87;9.83;;;;;;;;;;5060037;28;20204;-72
2023/03/02 10:50:55;;;;;;;12.93;9.47;;;;;;;;;;5062450;28;20208;-72
2023/03/02 10:53:22;;;;;;;11.33;8.70;;;;;;;;;;5061481;28;20278;-72
2023/03/02 10:55:51;;;;;;;13.63;9.93;;;;;;;;;;5057860;28;20310;-71
2023/03/02 10:58:24;;;;;;;9.63;8.63;;;;;;;;;;5063858;28;20209;-71
2023/03/02 11:01:00;;;;;;;11.77;9.13;;;;;;;;;;5060287;28;20226;-70
2023/03/02 11:03:27;;;;;;;10.50;9.27;;;;;;;;;;5058507;28;20289;-70
2023/03/02 11:05:54;;;;;;;9.87;8.60;;;;;;;;;;5057667;28;20199;-71
2023/03/02 11:08:23;;;;;;;10.73;9.43;;;;;;;;;;5053931;28;20203;-71
2023/03/02 11:10:54;;;;;;;11.07;8.60;;;;;;;;;;5056948;28;20203;-70
2023/03/02 11:13:25;;;;;;;10.77;8.87;;;;;;;;;;5061042;28;20198;-72
2023/03/02 11:15:54;;;;;;;10.03;8.47;;;;;;;;;;5061561;28;20221;-71
2023/03/02 11:18:25;;;;;;;9.93;8.80;;;;;;;;;;5056336;28;20207;-71
2023/03/02 11:20:53;;;;;;;9.70;8.50;;;;;;;;;;5059522;28;20225;-71
2023/03/02 11:23:24;;;;;;;10.47;8.97;;;;;;;;;;5056111;28;20242;-71
2023/03/02 11:25:53;;;;;;;10.03;8.93;;;;;;;;;;5058541;28;20203;-71
2023/03/02 11:28:32;;;;;;;9.87;8.67;;;;;;;;;;5055997;28;20221;-71
2023/03/02 11:31:00;;;;;;;10.93;8.67;;;;;;;;;;5053869;28;20290;-71
2023/03/02 11:33:32;;;;;;;9.70;8.70;;;;;;;;;;5058962;28;20222;-71
2023/03/02 11:36:03;;;;;;;9.43;8.43;;;;;;;;;;5061193;28;20211;-71
2023/03/02 11:38:33;;;;;;;9.90;8.77;;;;;;;;;;5064951;28;20199;-71
2023/03/02 11:41:01;;;;;;;9.80;8.37;;;;;;;;;;5055012;28;20203;-70
2023/03/02 11:43:29;;;;;;;11.10;8.27;;;;;;;;;;5061183;28;20203;-70
2023/03/02 11:45:59;;;;;;;8.80;7.80;;;;;;;;;;5057082;28;20195;-70
2023/03/02 11:48:29;;;;;;;11.40;9.20;;;;;;;;;;5063454;28;20206;-71
2023/03/02 11:50:58;;;;;;;10.10;8.07;;;;;;;;;;5053769;28;20203;-71
2023/03/02 11:53:28;;;;;;;10.13;8.67;;;;;;;;;;5060343;28;20198;-70
2023/03/02 11:55:56;;;;;;;10.53;8.67;;;;;;;;;;5048069;28;20230;-71
2023/03/02 11:58:24;;;;;;;12.70;8.60;;;;;;;;;;5057406;28;20203;-70
2023/03/02 12:00:52;;;;;;;8.77;7.88;;;;;;;;;;5062744;28;20205;-70
2023/03/02 12:03:21;;;;;;;10.20;8.27;;;;;;;;;;5051615;28;20206;-70
2023/03/02 12:06:01;;;;;;;9.75;8.63;;;;;;;;;;5055666;28;20208;-70
2023/03/02 12:08:33;;;;;;;9.43;8.50;;;;;;;;;;5057080;28;20225;-70
2023/03/02 12:11:02;;;;;;;10.17;8.27;;;;;;;;;;5057830;28;20207;-69
2023/03/02 12:13:30;;;;;;;9.10;8.15;;;;;;;;;;5059814;28;20205;-69
2023/03/02 12:15:58;;;;;;;10.65;8.98;;;;;;;;;;5055026;28;20254;-69
2023/03/02 12:18:41;;;;;;;9.40;8.23;;;;;;;;;;5060610;28;20209;-69
2023/03/02 12:21:11;;;;;;;8.73;7.82;;;;;;;;;;5055823;28;20207;-69
2023/03/02 12:23:42;;;;;;;8.98;8.07;;;;;;;;;;5057467;28;20215;-70
2023/03/02 12:26:23;;;;;;;9.20;8.15;;;;;;;;;;5058341;28;20199;-69
2023/03/02 12:28:57;;;;;;;11.20;8.15;;;;;;;;;;5056354;28;20206;-69
2023/03/02 12:31:24;;;;;;;10.65;8.43;;;;;;;;;;5060255;28;20198;-68
2023/03/02 12:33:52;;;;;;;10.93;9.02;;;;;;;;;;5053416;28;20205;-70
2023/03/02 12:36:25;;;;;;;8.70;7.82;;;;;;;;;;5059374;28;20239;-69
2023/03/02 12:38:58;;;;;;;8.90;8.00;;;;;;;;;;5064244;28;20195;-69
2023/03/02 12:41:34;;;;;;;9.57;8.57;;;;;;;;;;5068993;28;20199;-70
2023/03/02 12:44:16;;;;;;;12.70;8.55;;;;;;;;;;5058853;28;20198;-70
2023/03/02 12:46:45;;;;;;;9.07;8.18;;;;;;;;;;5067776;28;20194;-70
2023/03/02 12:49:15;;;;;;;10.53;8.07;;;;;;;;;;5065432;28;20209;-69
2023/03/02 12:51:54;;;;;;;9.57;8.52;;;;;;;;;;5066984;28;20210;-70
2023/03/02 12:54:22;;;;;;;8.60;7.72;;;;;;;;;;5059305;28;20206;-69
2023/03/02 12:56:49;;;;;;;8.63;7.82;;;;;;;;;;5061314;28;20223;-69
2023/03/02 12:59:24;;;;;;;11.13;8.57;;;;;;;;;;5061003;28;20211;-72
2023/03/02 13:01:51;;;;;;;9.07;8.18;;;;;;;;;;5061709;28;20206;-71
2023/03/02 13:04:22;;;;;;;11.63;8.13;;;;;;;;;;5062739;28;20210;-71
2023/03/02 13:06:49;;;;;;;8.80;7.90;;;;;;;;;;5067181;28;20207;-71
2023/03/02 13:09:19;;;;;;;11.38;9.05;;;;;;;;;;5059429;28;20210;-71
2023/03/02 13:11:47;;;;;;;12.18;9.30;;;;;;;;;;5059858;28;20203;-71
2023/03/02 13:14:26;;;;;;;10.73;8.90;;;;;;;;;;5063576;28;20207;-72
2023/03/02 13:16:58;;;;;;;10.15;7.80;;;;;;;;;;5057178;28;20234;-71
2023/03/02 13:19:25;;;;;;;9.27;8.23;;;;;;;;;;5059896;28;20212;-72
2023/03/02 13:21:53;;;;;;;14.00;9.70;;;;;;;;;;5056451;28;20207;-72
2023/03/02 13:24:31;;;;;;;8.73;7.80;;;;;;;;;;5061765;28;20203;-72
2023/03/02 13:26:59;;;;;;;11.40;8.65;;;;;;;;;;5057656;28;20191;-72
2023/03/02 13:29:27;;;;;;;8.85;7.93;;;;;;;;;;5067185;28;20203;-71
2023/03/02 13:31:54;;;;;;;10.63;8.35;;;;;;;;;;5059928;28;20216;-71
2023/03/02 13:34:23;;;;;;;9.67;8.67;;;;;;;;;;5053982;28;20214;-71
2023/03/02 13:36:50;;;;;;;9.50;8.20;;;;;;;;;;5065489;28;20229;-72
2023/03/02 13:39:19;;;;;;;10.48;8.23;;;;;;;;;;5066664;28;20203;-71
2023/03/02 13:41:54;;;;;;;9.70;8.15;;;;;;;;;;5067025;28;20207;-72
2023/03/02 13:44:23;;;;;;;9.77;8.67;;;;;;;;;;5058995;28;20272;-72
2023/03/02 13:46:50;;;;;;;9.13;8.20;;;;;;;;;;5057111;28;20200;-72
2023/03/02 13:49:26;;;;;;;10.47;8.67;;;;;;;;;;5059515;28;20294;-71
2023/03/02 13:51:57;;;;;;;9.77;8.00;;;;;;;;;;5066002;28;20248;-71
2023/03/02 13:54:26;;;;;;;9.05;8.15;;;;;;;;;;5063346;28;20208;-72
2023/03/02 13:56:55;;;;;;;8.87;7.83;;;;;;;;;;5057695;28;20246;-72
2023/03/02 13:59:23;;;;;;;10.15;7.68;;;;;;;;;;5063238;28;20199;-72
2023/03/02 14:01:50;;;;;;;8.90;7.73;;;;;;;;;;5058845;28;20199;-72
2023/03/02 14:04:20;;;;;;;10.13;8.30;;;;;;;;;;5062480;28;20194;-71
2023/03/02 14:06:47;;;;;;;10.93;7.70;;;;;;;;;;5059743;28;20214;-72
2023/03/02 14:09:15;;;;;;;9.87;8.23;;;;;;;;;;5056846;28;20195;-70
2023/03/02 14:11:44;;;;;;;9.03;7.60;;;;;;;;;;5058546;28;20208;-70
2023/03/02 14:14:15;;;;;;;8.50;7.60;;;;;;;;;;5054950;28;20205;-70
2023/03/02 14:16:42;;;;;;;11.70;7.75;;;;;;;;;;5055216;28;20212;-70
2023/03/02 14:19:10;;;;;;;8.60;7.43;;;;;;;;;;5056953;28;20195;-70
2023/03/02 14:21:37;;;;;;;9.40;7.10;;;;;;;;;;5062049;28;20203;-70
2023/03/02 14:24:04;;;;;;;9.83;7.87;;;;;;;;;;5058904;28;20221;-71
2023/03/02 14:26:33;;;;;;;10.77;7.67;;;;;;;;;;5067428;28;20203;-70
2023/03/02 14:29:01;;;;;;;10.73;8.73;;;;;;;;;;5056718;28;20207;-71
2023/03/02 14:31:29;;;;;;;9.93;8.67;;;;;;;;;;5066286;28;20210;-70
2023/03/02 14:33:56;;;;;;;10.27;7.43;;;;;;;;;;5059734;28;20204;-70
2023/03/02 14:36:27;;;;;;;8.70;7.40;;;;;;;;;;5064260;28;20202;-71
2023/03/02 14:38:54;;;;;;;9.33;7.70;;;;;;;;;;5062761;28;20219;-71
2023/03/02 14:41:23;;;;;;;9.30;7.90;;;;;;;;;;5059297;28;20199;-70
2023/03/02 14:43:50;;;;;;;9.17;8.07;;;;;;;;;;5061445;28;20199;-70